sensor_id;sensor_type;location;lat;lon;timestamp;P1;durP1;ratioP1;P2;durP2;ratioP2
15271;SDS011;7737;51.578;7.268;2023-07-20T00:01:04;4.93;;;3.67;;
15271;SDS011;7737;51.578;7.268;2023-07-20T00:03:30;8.50;;;4.18;;
15271;SDS011;7737;51.578;7.268;2023-07-20T00:05:57;6.60;;;3.70;;
15271;SDS011;7737;51.578;7.268;2023-07-20T00:08:23;4.60;;;3.30;;
15271;SDS011;7737;51.578;7.268;2023-07-20T00:10:50;5.03;;;3.35;;
15271;SDS011;7737;51.578;7.268;2023-07-20T00:13:18;4.22;;;3.40;;
15271;SDS011;7737;51.578;7.268;2023-07-20T00:15:46;4.65;;;3.78;;
15271;SDS011;7737;51.578;7.268;2023-07-20T00:18:13;5.00;;;3.70;;
15271;SDS011;7737;51.578;7.268;2023-07-20T00:20:40;5.97;;;3.80;;
15271;SDS011;7737;51.578;7.268;2023-07-20T00:23:07;5.68;;;3.53;;
15271;SDS011;7737;51.578;7.268;2023-07-20T00:25:34;5.32;;;3.40;;
15271;SDS011;7737;51.578;7.268;2023-07-20T00:28:01;5.60;;;3.20;;
15271;SDS011;7737;51.578;7.268;2023-07-20T00:30:28;6.10;;;3.92;;
15271;SDS011;7737;51.578;7.268;2023-07-20T00:32:55;6.65;;;3.80;;
15271;SDS011;7737;51.578;7.268;2023-07-20T00:35:21;4.50;;;3.15;;
15271;SDS011;7737;51.578;7.268;2023-07-20T00:37:48;5.03;;;3.60;;
15271;SDS011;7737;51.578;7.268;2023-07-20T00:40:15;6.07;;;3.75;;
15271;SDS011;7737;51.578;7.268;2023-07-20T00:42:43;5.57;;;3.42;;
15271;SDS011;7737;51.578;7.268;2023-07-20T00:45:09;4.65;;;3.25;;
15271;SDS011;7737;51.578;7.268;2023-07-20T00:47:37;5.63;;;3.60;;
15271;SDS011;7737;51.578;7.268;2023-07-20T00:50:04;7.05;;;3.60;;
15271;SDS011;7737;51.578;7.268;2023-07-20T00:52:32;6.28;;;3.83;;
15271;SDS011;7737;51.578;7.268;2023-07-20T00:55:00;6.70;;;4.03;;
15271;SDS011;7737;51.578;7.268;2023-07-20T00:57:27;6.47;;;3.63;;
15271;SDS011;7737;51.578;7.268;2023-07-20T00:59:53;4.43;;;3.85;;
15271;SDS011;7737;51.578;7.268;2023-07-20T01:02:20;8.23;;;4.10;;
15271;SDS011;7737;51.578;7.268;2023-07-20T01:04:48;9.50;;;4.30;;
15271;SDS011;7737;51.578;7.268;2023-07-20T01:07:17;6.82;;;3.97;;
15271;SDS011;7737;51.578;7.268;2023-07-20T01:09:52;6.40;;;4.43;;
15271;SDS011;7737;51.578;7.268;2023-07-20T01:12:29;6.30;;;3.92;;
15271;SDS011;7737;51.578;7.268;2023-07-20T01:14:59;7.65;;;4.35;;
15271;SDS011;7737;51.578;7.268;2023-07-20T01:17:26;6.10;;;4.32;;
15271;SDS011;7737;51.578;7.268;2023-07-20T01:19:54;9.00;;;4.65;;
15271;SDS011;7737;51.578;7.268;2023-07-20T01:22:31;6.72;;;5.07;;
15271;SDS011;7737;51.578;7.268;2023-07-20T01:25:11;6.00;;;4.43;;
15271;SDS011;7737;51.578;7.268;2023-07-20T01:28:09;9.35;;;5.40;;
15271;SDS011;7737;51.578;7.268;2023-07-20T01:30:55;6.50;;;5.15;;
15271;SDS011;7737;51.578;7.268;2023-07-20T01:33:26;8.77;;;5.55;;
15271;SDS011;7737;51.578;7.268;2023-07-20T01:35:56;8.60;;;5.25;;
15271;SDS011;7737;51.578;7.268;2023-07-20T01:38:25;7.78;;;4.80;;
15271;SDS011;7737;51.578;7.268;2023-07-20T01:40:52;9.98;;;5.75;;
15271;SDS011;7737;51.578;7.268;2023-07-20T01:43:19;6.47;;;5.22;;
15271;SDS011;7737;51.578;7.268;2023-07-20T01:45:45;7.85;;;5.13;;
15271;SDS011;7737;51.578;7.268;2023-07-20T01:48:12;9.52;;;5.57;;
15271;SDS011;7737;51.578;7.268;2023-07-20T01:50:40;7.55;;;4.50;;
15271;SDS011;7737;51.578;7.268;2023-07-20T01:53:07;7.78;;;4.88;;
15271;SDS011;7737;51.578;7.268;2023-07-20T01:55:33;5.75;;;3.97;;
15271;SDS011;7737;51.578;7.268;2023-07-20T01:58:00;8.57;;;4.93;;
15271;SDS011;7737;51.578;7.268;2023-07-20T02:00:27;7.03;;;4.55;;
15271;SDS011;7737;51.578;7.268;2023-07-20T02:02:53;6.13;;;4.60;;
15271;SDS011;7737;51.578;7.268;2023-07-20T02:05:20;6.47;;;5.07;;
15271;SDS011;7737;51.578;7.268;2023-07-20T02:07:47;6.45;;;4.85;;
15271;SDS011;7737;51.578;7.268;2023-07-20T02:10:15;7.68;;;4.30;;
15271;SDS011;7737;51.578;7.268;2023-07-20T02:12:42;5.18;;;4.40;;
15271;SDS011;7737;51.578;7.268;2023-07-20T02:15:09;6.78;;;4.75;;
15271;SDS011;7737;51.578;7.268;2023-07-20T02:17:38;7.30;;;5.22;;
15271;SDS011;7737;51.578;7.268;2023-07-20T02:20:06;9.57;;;7.05;;
15271;SDS011;7737;51.578;7.268;2023-07-20T02:22:35;24.52;;;9.30;;
15271;SDS011;7737;51.578;7.268;2023-07-20T02:25:03;13.65;;;8.85;;
15271;SDS011;7737;51.578;7.268;2023-07-20T02:27:30;11.18;;;9.23;;
15271;SDS011;7737;51.578;7.268;2023-07-20T02:29:56;11.38;;;10.05;;
15271;SDS011;7737;51.578;7.268;2023-07-20T02:32:23;12.00;;;10.70;;
15271;SDS011;7737;51.578;7.268;2023-07-20T02:34:50;11.52;;;10.13;;
15271;SDS011;7737;51.578;7.268;2023-07-20T02:37:16;13.88;;;10.18;;
15271;SDS011;7737;51.578;7.268;2023-07-20T02:39:43;11.15;;;9.80;;
15271;SDS011;7737;51.578;7.268;2023-07-20T02:42:11;10.73;;;9.73;;
15271;SDS011;7737;51.578;7.268;2023-07-20T02:44:38;11.73;;;10.32;;
15271;SDS011;7737;51.578;7.268;2023-07-20T02:47:05;11.85;;;10.48;;
15271;SDS011;7737;51.578;7.268;2023-07-20T02:49:32;12.50;;;10.93;;
15271;SDS011;7737;51.578;7.268;2023-07-20T02:51:58;14.52;;;11.30;;
15271;SDS011;7737;51.578;7.268;2023-07-20T02:54:25;12.98;;;11.40;;
15271;SDS011;7737;51.578;7.268;2023-07-20T02:56:51;13.20;;;8.73;;
15271;SDS011;7737;51.578;7.268;2023-07-20T02:59:19;9.60;;;6.38;;
15271;SDS011;7737;51.578;7.268;2023-07-20T03:01:46;6.95;;;6.10;;
15271;SDS011;7737;51.578;7.268;2023-07-20T03:04:13;6.53;;;5.90;;
15271;SDS011;7737;51.578;7.268;2023-07-20T03:06:39;8.57;;;6.47;;
15271;SDS011;7737;51.578;7.268;2023-07-20T03:09:06;6.85;;;6.15;;
15271;SDS011;7737;51.578;7.268;2023-07-20T03:11:34;7.72;;;6.55;;
15271;SDS011;7737;51.578;7.268;2023-07-20T03:14:01;10.18;;;7.82;;
15271;SDS011;7737;51.578;7.268;2023-07-20T03:16:28;13.30;;;8.98;;
15271;SDS011;7737;51.578;7.268;2023-07-20T03:18:57;20.02;;;11.02;;
15271;SDS011;7737;51.578;7.268;2023-07-20T03:21:24;10.98;;;9.15;;
15271;SDS011;7737;51.578;7.268;2023-07-20T03:23:51;10.48;;;9.38;;
15271;SDS011;7737;51.578;7.268;2023-07-20T03:26:17;9.48;;;8.57;;
15271;SDS011;7737;51.578;7.268;2023-07-20T03:28:44;10.73;;;9.73;;
15271;SDS011;7737;51.578;7.268;2023-07-20T03:31:10;10.48;;;9.50;;
15271;SDS011;7737;51.578;7.268;2023-07-20T03:33:38;12.55;;;11.27;;
15271;SDS011;7737;51.578;7.268;2023-07-20T03:36:05;11.80;;;10.73;;
15271;SDS011;7737;51.578;7.268;2023-07-20T03:38:31;13.25;;;11.90;;
15271;SDS011;7737;51.578;7.268;2023-07-20T03:40:58;12.63;;;11.23;;
15271;SDS011;7737;51.578;7.268;2023-07-20T03:43:26;14.50;;;13.07;;
15271;SDS011;7737;51.578;7.268;2023-07-20T03:45:54;15.07;;;13.57;;
15271;SDS011;7737;51.578;7.268;2023-07-20T03:48:22;15.48;;;13.93;;
15271;SDS011;7737;51.578;7.268;2023-07-20T03:50:51;14.80;;;13.35;;
15271;SDS011;7737;51.578;7.268;2023-07-20T03:53:19;16.25;;;13.85;;
15271;SDS011;7737;51.578;7.268;2023-07-20T03:55:46;12.93;;;11.73;;
15271;SDS011;7737;51.578;7.268;2023-07-20T03:58:13;17.02;;;15.23;;
15271;SDS011;7737;51.578;7.268;2023-07-20T04:00:43;18.35;;;16.45;;
15271;SDS011;7737;51.578;7.268;2023-07-20T04:03:10;18.05;;;15.85;;
15271;SDS011;7737;51.578;7.268;2023-07-20T04:05:37;15.32;;;13.77;;
15271;SDS011;7737;51.578;7.268;2023-07-20T04:08:05;17.35;;;15.50;;
15271;SDS011;7737;51.578;7.268;2023-07-20T04:10:31;18.15;;;16.20;;
15271;SDS011;7737;51.578;7.268;2023-07-20T04:12:59;18.98;;;17.05;;
15271;SDS011;7737;51.578;7.268;2023-07-20T04:15:26;19.00;;;17.20;;
15271;SDS011;7737;51.578;7.268;2023-07-20T04:17:53;17.98;;;16.17;;
15271;SDS011;7737;51.578;7.268;2023-07-20T04:20:20;18.48;;;16.65;;
15271;SDS011;7737;51.578;7.268;2023-07-20T04:22:47;18.38;;;16.52;;
15271;SDS011;7737;51.578;7.268;2023-07-20T04:25:15;17.52;;;15.93;;
15271;SDS011;7737;51.578;7.268;2023-07-20T04:27:42;17.98;;;16.23;;
15271;SDS011;7737;51.578;7.268;2023-07-20T04:30:10;19.52;;;16.35;;
15271;SDS011;7737;51.578;7.268;2023-07-20T04:32:37;16.45;;;14.75;;
15271;SDS011;7737;51.578;7.268;2023-07-20T04:35:09;14.40;;;13.07;;
15271;SDS011;7737;51.578;7.268;2023-07-20T04:37:35;15.13;;;13.57;;
15271;SDS011;7737;51.578;7.268;2023-07-20T04:40:02;14.18;;;12.80;;
15271;SDS011;7737;51.578;7.268;2023-07-20T04:42:31;12.63;;;11.40;;
15271;SDS011;7737;51.578;7.268;2023-07-20T04:44:57;11.93;;;10.90;;
15271;SDS011;7737;51.578;7.268;2023-07-20T04:47:24;11.32;;;10.23;;
15271;SDS011;7737;51.578;7.268;2023-07-20T04:49:50;11.57;;;10.52;;
15271;SDS011;7737;51.578;7.268;2023-07-20T04:52:17;11.65;;;10.55;;
15271;SDS011;7737;51.578;7.268;2023-07-20T04:54:44;11.70;;;10.80;;
15271;SDS011;7737;51.578;7.268;2023-07-20T04:57:10;12.48;;;11.27;;
15271;SDS011;7737;51.578;7.268;2023-07-20T04:59:39;12.32;;;11.27;;
15271;SDS011;7737;51.578;7.268;2023-07-20T05:02:06;12.65;;;11.45;;
15271;SDS011;7737;51.578;7.268;2023-07-20T05:04:32;13.60;;;12.30;;
15271;SDS011;7737;51.578;7.268;2023-07-20T05:06:59;13.60;;;12.27;;
15271;SDS011;7737;51.578;7.268;2023-07-20T05:09:26;12.95;;;11.75;;
15271;SDS011;7737;51.578;7.268;2023-07-20T05:11:52;12.70;;;11.50;;
15271;SDS011;7737;51.578;7.268;2023-07-20T05:14:19;9.80;;;8.90;;
15271;SDS011;7737;51.578;7.268;2023-07-20T05:16:50;9.23;;;8.43;;
15271;SDS011;7737;51.578;7.268;2023-07-20T05:19:16;9.15;;;8.45;;
15271;SDS011;7737;51.578;7.268;2023-07-20T05:21:43;10.27;;;9.38;;
15271;SDS011;7737;51.578;7.268;2023-07-20T05:24:10;9.98;;;9.10;;
15271;SDS011;7737;51.578;7.268;2023-07-20T05:26:37;9.80;;;8.90;;
15271;SDS011;7737;51.578;7.268;2023-07-20T05:29:04;10.73;;;9.82;;
15271;SDS011;7737;51.578;7.268;2023-07-20T05:31:30;9.32;;;8.48;;
15271;SDS011;7737;51.578;7.268;2023-07-20T05:33:58;10.07;;;8.80;;
15271;SDS011;7737;51.578;7.268;2023-07-20T05:36:25;10.20;;;8.68;;
15271;SDS011;7737;51.578;7.268;2023-07-20T05:38:52;9.23;;;8.05;;
15271;SDS011;7737;51.578;7.268;2023-07-20T05:41:18;8.55;;;7.75;;
15271;SDS011;7737;51.578;7.268;2023-07-20T05:43:45;7.88;;;7.18;;
15271;SDS011;7737;51.578;7.268;2023-07-20T05:46:12;7.40;;;6.70;;
15271;SDS011;7737;51.578;7.268;2023-07-20T05:48:38;7.65;;;7.07;;
15271;SDS011;7737;51.578;7.268;2023-07-20T05:51:07;6.22;;;5.82;;
15271;SDS011;7737;51.578;7.268;2023-07-20T05:53:34;6.75;;;6.13;;
15271;SDS011;7737;51.578;7.268;2023-07-20T05:56:01;5.28;;;4.88;;
15271;SDS011;7737;51.578;7.268;2023-07-20T05:58:28;5.82;;;5.32;;
15271;SDS011;7737;51.578;7.268;2023-07-20T06:00:54;5.65;;;5.20;;
15271;SDS011;7737;51.578;7.268;2023-07-20T06:03:21;5.00;;;4.65;;
15271;SDS011;7737;51.578;7.268;2023-07-20T06:05:48;5.45;;;5.05;;
15271;SDS011;7737;51.578;7.268;2023-07-20T06:08:16;6.28;;;5.68;;
15271;SDS011;7737;51.578;7.268;2023-07-20T06:10:43;5.78;;;5.35;;
15271;SDS011;7737;51.578;7.268;2023-07-20T06:13:09;5.30;;;4.82;;
15271;SDS011;7737;51.578;7.268;2023-07-20T06:15:36;4.47;;;4.07;;
15271;SDS011;7737;51.578;7.268;2023-07-20T06:18:04;4.90;;;4.50;;
15271;SDS011;7737;51.578;7.268;2023-07-20T06:20:30;4.80;;;4.40;;
15271;SDS011;7737;51.578;7.268;2023-07-20T06:22:57;4.68;;;4.28;;
15271;SDS011;7737;51.578;7.268;2023-07-20T06:25:25;4.47;;;4.18;;
15271;SDS011;7737;51.578;7.268;2023-07-20T06:27:52;4.40;;;4.10;;
15271;SDS011;7737;51.578;7.268;2023-07-20T06:30:19;4.13;;;3.50;;
15271;SDS011;7737;51.578;7.268;2023-07-20T06:32:45;4.60;;;3.70;;
15271;SDS011;7737;51.578;7.268;2023-07-20T06:35:12;4.53;;;3.72;;
15271;SDS011;7737;51.578;7.268;2023-07-20T06:37:39;4.25;;;3.85;;
15271;SDS011;7737;51.578;7.268;2023-07-20T06:40:06;3.72;;;3.42;;
15271;SDS011;7737;51.578;7.268;2023-07-20T06:42:35;5.13;;;4.70;;
15271;SDS011;7737;51.578;7.268;2023-07-20T06:45:02;4.15;;;3.85;;
15271;SDS011;7737;51.578;7.268;2023-07-20T06:47:29;4.15;;;3.85;;
15271;SDS011;7737;51.578;7.268;2023-07-20T06:49:56;3.85;;;3.55;;
15271;SDS011;7737;51.578;7.268;2023-07-20T06:52:22;3.40;;;3.20;;
15271;SDS011;7737;51.578;7.268;2023-07-20T06:54:49;3.25;;;2.95;;
15271;SDS011;7737;51.578;7.268;2023-07-20T06:57:16;3.47;;;3.25;;
15271;SDS011;7737;51.578;7.268;2023-07-20T06:59:44;3.40;;;3.10;;
15271;SDS011;7737;51.578;7.268;2023-07-20T07:02:10;3.00;;;2.80;;
15271;SDS011;7737;51.578;7.268;2023-07-20T07:04:37;2.75;;;2.55;;
15271;SDS011;7737;51.578;7.268;2023-07-20T07:07:04;3.10;;;2.80;;
15271;SDS011;7737;51.578;7.268;2023-07-20T07:09:30;2.92;;;2.58;;
15271;SDS011;7737;51.578;7.268;2023-07-20T07:11:57;2.35;;;2.15;;
15271;SDS011;7737;51.578;7.268;2023-07-20T07:14:24;2.72;;;1.90;;
15271;SDS011;7737;51.578;7.268;2023-07-20T07:16:52;2.72;;;2.15;;
15271;SDS011;7737;51.578;7.268;2023-07-20T07:19:19;1.50;;;1.40;;
15271;SDS011;7737;51.578;7.268;2023-07-20T07:21:45;1.95;;;1.60;;
15271;SDS011;7737;51.578;7.268;2023-07-20T07:24:12;2.28;;;2.08;;
15271;SDS011;7737;51.578;7.268;2023-07-20T07:26:38;7.50;;;4.13;;
15271;SDS011;7737;51.578;7.268;2023-07-20T07:29:05;2.28;;;2.03;;
15271;SDS011;7737;51.578;7.268;2023-07-20T07:31:33;2.42;;;2.17;;
15271;SDS011;7737;51.578;7.268;2023-07-20T07:34:01;2.38;;;2.17;;
15271;SDS011;7737;51.578;7.268;2023-07-20T07:36:28;2.88;;;2.58;;
15271;SDS011;7737;51.578;7.268;2023-07-20T07:38:55;2.92;;;2.72;;
15271;SDS011;7737;51.578;7.268;2023-07-20T07:41:21;3.67;;;2.88;;
15271;SDS011;7737;51.578;7.268;2023-07-20T07:43:48;3.78;;;2.88;;
15271;SDS011;7737;51.578;7.268;2023-07-20T07:46:14;3.10;;;2.42;;
15271;SDS011;7737;51.578;7.268;2023-07-20T07:48:41;2.72;;;2.35;;
15271;SDS011;7737;51.578;7.268;2023-07-20T07:51:10;2.13;;;1.90;;
15271;SDS011;7737;51.578;7.268;2023-07-20T07:53:37;2.25;;;1.40;;
15271;SDS011;7737;51.578;7.268;2023-07-20T07:56:06;1.90;;;1.13;;
15271;SDS011;7737;51.578;7.268;2023-07-20T07:58:33;2.65;;;1.10;;
15271;SDS011;7737;51.578;7.268;2023-07-20T08:01:00;1.92;;;1.00;;
15271;SDS011;7737;51.578;7.268;2023-07-20T08:03:27;1.63;;;1.17;;
15271;SDS011;7737;51.578;7.268;2023-07-20T08:05:53;2.38;;;1.20;;
15271;SDS011;7737;51.578;7.268;2023-07-20T08:08:22;2.72;;;1.10;;
15271;SDS011;7737;51.578;7.268;2023-07-20T08:10:49;1.30;;;0.98;;
15271;SDS011;7737;51.578;7.268;2023-07-20T08:13:19;1.73;;;0.93;;
15271;SDS011;7737;51.578;7.268;2023-07-20T08:15:46;1.30;;;0.73;;
15271;SDS011;7737;51.578;7.268;2023-07-20T08:18:15;2.03;;;0.82;;
15271;SDS011;7737;51.578;7.268;2023-07-20T08:20:43;1.65;;;0.77;;
15271;SDS011;7737;51.578;7.268;2023-07-20T08:23:10;1.27;;;0.90;;
15271;SDS011;7737;51.578;7.268;2023-07-20T08:25:38;2.25;;;0.90;;
15271;SDS011;7737;51.578;7.268;2023-07-20T08:28:08;1.63;;;0.70;;
15271;SDS011;7737;51.578;7.268;2023-07-20T08:30:39;3.10;;;0.90;;
15271;SDS011;7737;51.578;7.268;2023-07-20T08:33:07;1.40;;;0.88;;
15271;SDS011;7737;51.578;7.268;2023-07-20T08:35:34;1.13;;;0.70;;
15271;SDS011;7737;51.578;7.268;2023-07-20T08:38:00;0.75;;;0.60;;
15271;SDS011;7737;51.578;7.268;2023-07-20T08:40:27;1.75;;;0.70;;
15271;SDS011;7737;51.578;7.268;2023-07-20T08:42:55;1.85;;;0.63;;
15271;SDS011;7737;51.578;7.268;2023-07-20T08:45:24;1.23;;;0.60;;
15271;SDS011;7737;51.578;7.268;2023-07-20T08:47:52;1.20;;;0.60;;
15271;SDS011;7737;51.578;7.268;2023-07-20T08:50:21;1.27;;;0.65;;
15271;SDS011;7737;51.578;7.268;2023-07-20T08:52:49;1.00;;;0.70;;
15271;SDS011;7737;51.578;7.268;2023-07-20T08:55:18;1.10;;;0.70;;
15271;SDS011;7737;51.578;7.268;2023-07-20T08:57:45;1.17;;;0.93;;
15271;SDS011;7737;51.578;7.268;2023-07-20T09:00:17;0.65;;;0.63;;
15271;SDS011;7737;51.578;7.268;2023-07-20T09:02:46;0.93;;;0.73;;
15271;SDS011;7737;51.578;7.268;2023-07-20T09:05:15;1.15;;;0.70;;
15271;SDS011;7737;51.578;7.268;2023-07-20T09:07:42;1.10;;;0.80;;
15271;SDS011;7737;51.578;7.268;2023-07-20T09:10:09;0.80;;;0.80;;
15271;SDS011;7737;51.578;7.268;2023-07-20T09:12:37;1.40;;;1.00;;
15271;SDS011;7737;51.578;7.268;2023-07-20T09:15:04;1.17;;;1.05;;
15271;SDS011;7737;51.578;7.268;2023-07-20T09:17:33;1.45;;;1.10;;
15271;SDS011;7737;51.578;7.268;2023-07-20T09:20:03;1.67;;;1.00;;
15271;SDS011;7737;51.578;7.268;2023-07-20T09:22:33;1.45;;;1.20;;
15271;SDS011;7737;51.578;7.268;2023-07-20T09:25:00;0.82;;;0.82;;
15271;SDS011;7737;51.578;7.268;2023-07-20T09:27:31;1.10;;;1.00;;
15271;SDS011;7737;51.578;7.268;2023-07-20T09:30:02;1.00;;;0.80;;
15271;SDS011;7737;51.578;7.268;2023-07-20T09:32:30;0.90;;;0.80;;
15271;SDS011;7737;51.578;7.268;2023-07-20T09:34:58;0.70;;;0.60;;
15271;SDS011;7737;51.578;7.268;2023-07-20T09:37:24;0.70;;;0.70;;
15271;SDS011;7737;51.578;7.268;2023-07-20T09:39:52;2.35;;;0.70;;
15271;SDS011;7737;51.578;7.268;2023-07-20T09:42:19;1.13;;;0.98;;
15271;SDS011;7737;51.578;7.268;2023-07-20T09:44:47;1.50;;;0.90;;
15271;SDS011;7737;51.578;7.268;2023-07-20T09:47:15;1.83;;;1.20;;
15271;SDS011;7737;51.578;7.268;2023-07-20T09:49:48;1.77;;;1.40;;
15271;SDS011;7737;51.578;7.268;2023-07-20T09:52:16;1.67;;;1.33;;
15271;SDS011;7737;51.578;7.268;2023-07-20T09:54:44;1.20;;;1.05;;
15271;SDS011;7737;51.578;7.268;2023-07-20T09:57:12;1.08;;;0.98;;
15271;SDS011;7737;51.578;7.268;2023-07-20T09:59:39;1.60;;;0.90;;
15271;SDS011;7737;51.578;7.268;2023-07-20T10:02:08;1.10;;;0.90;;
15271;SDS011;7737;51.578;7.268;2023-07-20T10:04:46;1.23;;;0.80;;
15271;SDS011;7737;51.578;7.268;2023-07-20T10:07:13;0.93;;;0.88;;
15271;SDS011;7737;51.578;7.268;2023-07-20T10:09:42;1.30;;;0.80;;
15271;SDS011;7737;51.578;7.268;2023-07-20T10:12:10;1.70;;;0.80;;
15271;SDS011;7737;51.578;7.268;2023-07-20T10:14:38;1.88;;;1.10;;
15271;SDS011;7737;51.578;7.268;2023-07-20T10:17:09;1.05;;;0.95;;
15271;SDS011;7737;51.578;7.268;2023-07-20T10:19:39;1.70;;;0.90;;
15271;SDS011;7737;51.578;7.268;2023-07-20T10:22:12;1.58;;;0.90;;
15271;SDS011;7737;51.578;7.268;2023-07-20T10:24:46;1.15;;;1.00;;
15271;SDS011;7737;51.578;7.268;2023-07-20T10:27:13;3.72;;;1.33;;
15271;SDS011;7737;51.578;7.268;2023-07-20T10:29:42;1.48;;;1.25;;
15271;SDS011;7737;51.578;7.268;2023-07-20T10:32:09;1.27;;;1.17;;
15271;SDS011;7737;51.578;7.268;2023-07-20T10:34:36;1.10;;;1.00;;
15271;SDS011;7737;51.578;7.268;2023-07-20T10:37:03;1.00;;;1.00;;
15271;SDS011;7737;51.578;7.268;2023-07-20T10:39:31;1.48;;;1.10;;
15271;SDS011;7737;51.578;7.268;2023-07-20T10:42:03;1.05;;;0.95;;
15271;SDS011;7737;51.578;7.268;2023-07-20T10:44:33;1.20;;;1.00;;
15271;SDS011;7737;51.578;7.268;2023-07-20T10:47:00;0.80;;;0.80;;
15271;SDS011;7737;51.578;7.268;2023-07-20T10:49:27;2.25;;;0.90;;
15271;SDS011;7737;51.578;7.268;2023-07-20T10:51:58;1.25;;;0.93;;
15271;SDS011;7737;51.578;7.268;2023-07-20T10:54:35;1.10;;;1.00;;
15271;SDS011;7737;51.578;7.268;2023-07-20T10:57:29;1.90;;;1.10;;
15271;SDS011;7737;51.578;7.268;2023-07-20T11:00:07;1.00;;;0.98;;
15271;SDS011;7737;51.578;7.268;2023-07-20T11:02:47;3.03;;;1.00;;
15271;SDS011;7737;51.578;7.268;2023-07-20T11:08:03;1.10;;;0.80;;
15271;SDS011;7737;51.578;7.268;2023-07-20T11:10:30;0.70;;;0.70;;
15271;SDS011;7737;51.578;7.268;2023-07-20T11:15:45;1.30;;;0.80;;
15271;SDS011;7737;51.578;7.268;2023-07-20T11:18:13;0.98;;;0.63;;
15271;SDS011;7737;51.578;7.268;2023-07-20T11:20:40;0.73;;;0.73;;
15271;SDS011;7737;51.578;7.268;2023-07-20T11:23:07;0.70;;;0.70;;
15271;SDS011;7737;51.578;7.268;2023-07-20T11:25:38;0.80;;;0.70;;
15271;SDS011;7737;51.578;7.268;2023-07-20T11:28:09;21.05;;;13.20;;
15271;SDS011;7737;51.578;7.268;2023-07-20T11:30:41;1.33;;;0.80;;
15271;SDS011;7737;51.578;7.268;2023-07-20T11:33:08;0.60;;;0.60;;
15271;SDS011;7737;51.578;7.268;2023-07-20T11:35:35;1.40;;;0.70;;
15271;SDS011;7737;51.578;7.268;2023-07-20T11:38:02;2.10;;;0.60;;
15271;SDS011;7737;51.578;7.268;2023-07-20T11:40:29;1.33;;;0.70;;
15271;SDS011;7737;51.578;7.268;2023-07-20T11:42:56;0.73;;;0.50;;
15271;SDS011;7737;51.578;7.268;2023-07-20T11:45:22;0.55;;;0.50;;
15271;SDS011;7737;51.578;7.268;2023-07-20T11:47:50;0.68;;;0.68;;
15271;SDS011;7737;51.578;7.268;2023-07-20T11:50:17;0.50;;;0.50;;
15271;SDS011;7737;51.578;7.268;2023-07-20T11:52:43;0.57;;;0.50;;
15271;SDS011;7737;51.578;7.268;2023-07-20T11:55:10;0.50;;;0.50;;
15271;SDS011;7737;51.578;7.268;2023-07-20T11:57:38;0.50;;;0.50;;
15271;SDS011;7737;51.578;7.268;2023-07-20T12:00:05;3.17;;;0.70;;
15271;SDS011;7737;51.578;7.268;2023-07-20T12:02:37;0.68;;;0.50;;
15271;SDS011;7737;51.578;7.268;2023-07-20T12:05:06;0.85;;;0.60;;
15271;SDS011;7737;51.578;7.268;2023-07-20T12:07:35;0.50;;;0.50;;
15271;SDS011;7737;51.578;7.268;2023-07-20T12:10:04;0.60;;;0.50;;
15271;SDS011;7737;51.578;7.268;2023-07-20T12:12:32;1.13;;;0.50;;
15271;SDS011;7737;51.578;7.268;2023-07-20T12:15:12;0.60;;;0.50;;
15271;SDS011;7737;51.578;7.268;2023-07-20T12:17:42;0.73;;;0.50;;
15271;SDS011;7737;51.578;7.268;2023-07-20T12:20:11;1.35;;;0.70;;
15271;SDS011;7737;51.578;7.268;2023-07-20T12:22:38;0.50;;;0.50;;
15271;SDS011;7737;51.578;7.268;2023-07-20T12:25:06;0.50;;;0.43;;
15271;SDS011;7737;51.578;7.268;2023-07-20T12:27:35;0.45;;;0.45;;
15271;SDS011;7737;51.578;7.268;2023-07-20T12:30:02;1.73;;;0.60;;
15271;SDS011;7737;51.578;7.268;2023-07-20T12:32:30;0.85;;;0.63;;
15271;SDS011;7737;51.578;7.268;2023-07-20T12:34:56;0.93;;;0.50;;
15271;SDS011;7737;51.578;7.268;2023-07-20T12:37:26;0.75;;;0.50;;
15271;SDS011;7737;51.578;7.268;2023-07-20T12:39:53;0.82;;;0.60;;
15271;SDS011;7737;51.578;7.268;2023-07-20T12:42:19;0.82;;;0.50;;
15271;SDS011;7737;51.578;7.268;2023-07-20T12:44:47;2.03;;;1.10;;
15271;SDS011;7737;51.578;7.268;2023-07-20T12:47:15;0.70;;;0.70;;
15271;SDS011;7737;51.578;7.268;2023-07-20T12:49:42;1.40;;;0.75;;
15271;SDS011;7737;51.578;7.268;2023-07-20T12:52:10;0.98;;;0.57;;
15271;SDS011;7737;51.578;7.268;2023-07-20T12:54:38;0.80;;;0.60;;
15271;SDS011;7737;51.578;7.268;2023-07-20T12:57:05;0.40;;;0.40;;
15271;SDS011;7737;51.578;7.268;2023-07-20T12:59:32;1.17;;;0.60;;
15271;SDS011;7737;51.578;7.268;2023-07-20T13:01:59;0.63;;;0.50;;
15271;SDS011;7737;51.578;7.268;2023-07-20T13:04:26;0.88;;;0.70;;
15271;SDS011;7737;51.578;7.268;2023-07-20T13:06:52;1.65;;;0.60;;
15271;SDS011;7737;51.578;7.268;2023-07-20T13:09:20;1.00;;;0.63;;
15271;SDS011;7737;51.578;7.268;2023-07-20T13:11:49;0.98;;;0.70;;
15271;SDS011;7737;51.578;7.268;2023-07-20T13:14:16;0.52;;;0.40;;
15271;SDS011;7737;51.578;7.268;2023-07-20T13:16:42;0.63;;;0.50;;
15271;SDS011;7737;51.578;7.268;2023-07-20T13:19:09;1.02;;;0.57;;
15271;SDS011;7737;51.578;7.268;2023-07-20T13:21:35;0.65;;;0.50;;
15271;SDS011;7737;51.578;7.268;2023-07-20T13:24:02;1.92;;;0.80;;
15271;SDS011;7737;51.578;7.268;2023-07-20T13:26:29;1.05;;;0.57;;
15271;SDS011;7737;51.578;7.268;2023-07-20T13:28:57;1.83;;;0.47;;
15271;SDS011;7737;51.578;7.268;2023-07-20T13:31:24;0.65;;;0.65;;
15271;SDS011;7737;51.578;7.268;2023-07-20T13:33:50;0.70;;;0.52;;
15271;SDS011;7737;51.578;7.268;2023-07-20T13:36:18;0.93;;;0.40;;
15271;SDS011;7737;51.578;7.268;2023-07-20T13:38:46;0.75;;;0.70;;
15271;SDS011;7737;51.578;7.268;2023-07-20T13:41:13;1.90;;;0.75;;
15271;SDS011;7737;51.578;7.268;2023-07-20T13:43:40;0.90;;;0.70;;
15271;SDS011;7737;51.578;7.268;2023-07-20T13:46:08;1.55;;;0.80;;
15271;SDS011;7737;51.578;7.268;2023-07-20T13:48:34;0.68;;;0.50;;
15271;SDS011;7737;51.578;7.268;2023-07-20T13:51:01;1.67;;;0.70;;
15271;SDS011;7737;51.578;7.268;2023-07-20T13:53:28;0.90;;;0.77;;
15271;SDS011;7737;51.578;7.268;2023-07-20T13:55:55;2.08;;;0.68;;
15271;SDS011;7737;51.578;7.268;2023-07-20T13:58:22;0.93;;;0.70;;
15271;SDS011;7737;51.578;7.268;2023-07-20T14:00:48;0.70;;;0.70;;
15271;SDS011;7737;51.578;7.268;2023-07-20T14:03:16;0.80;;;0.60;;
15271;SDS011;7737;51.578;7.268;2023-07-20T14:05:43;1.38;;;0.50;;
15271;SDS011;7737;51.578;7.268;2023-07-20T14:08:09;1.67;;;0.63;;
15271;SDS011;7737;51.578;7.268;2023-07-20T14:10:36;1.25;;;0.57;;
15271;SDS011;7737;51.578;7.268;2023-07-20T14:13:03;2.13;;;0.50;;
15271;SDS011;7737;51.578;7.268;2023-07-20T14:15:29;0.85;;;0.60;;
15271;SDS011;7737;51.578;7.268;2023-07-20T14:17:56;1.27;;;0.68;;
15271;SDS011;7737;51.578;7.268;2023-07-20T14:20:24;0.70;;;0.70;;
15271;SDS011;7737;51.578;7.268;2023-07-20T14:22:50;1.02;;;0.68;;
15271;SDS011;7737;51.578;7.268;2023-07-20T14:25:17;0.90;;;0.60;;
15271;SDS011;7737;51.578;7.268;2023-07-20T14:27:43;2.03;;;0.70;;
15271;SDS011;7737;51.578;7.268;2023-07-20T14:30:10;1.35;;;0.60;;
15271;SDS011;7737;51.578;7.268;2023-07-20T14:32:38;1.33;;;0.60;;
15271;SDS011;7737;51.578;7.268;2023-07-20T14:35:05;0.57;;;0.55;;
15271;SDS011;7737;51.578;7.268;2023-07-20T14:37:33;1.08;;;0.60;;
15271;SDS011;7737;51.578;7.268;2023-07-20T14:40:00;1.45;;;0.75;;
15271;SDS011;7737;51.578;7.268;2023-07-20T14:42:32;0.98;;;0.57;;
15271;SDS011;7737;51.578;7.268;2023-07-20T14:44:59;0.90;;;0.70;;
15271;SDS011;7737;51.578;7.268;2023-07-20T14:47:25;0.77;;;0.52;;
15271;SDS011;7737;51.578;7.268;2023-07-20T14:49:52;1.23;;;0.90;;
15271;SDS011;7737;51.578;7.268;2023-07-20T14:52:19;1.83;;;0.73;;
15271;SDS011;7737;51.578;7.268;2023-07-20T14:54:47;0.70;;;0.70;;
15271;SDS011;7737;51.578;7.268;2023-07-20T14:57:14;0.95;;;0.70;;
15271;SDS011;7737;51.578;7.268;2023-07-20T14:59:41;1.08;;;0.70;;
15271;SDS011;7737;51.578;7.268;2023-07-20T15:02:09;0.65;;;0.65;;
15271;SDS011;7737;51.578;7.268;2023-07-20T15:04:35;2.15;;;0.70;;
15271;SDS011;7737;51.578;7.268;2023-07-20T15:07:02;0.70;;;0.60;;